createdAt,value
2023-03-13T00:03:10.226Z,99741.36
2023-03-13T00:06:35.998Z,99736.08
2023-03-13T00:09:59.704Z,99726.17
2023-03-13T00:13:22.827Z,99719.19
2023-03-13T00:16:46.198Z,99727.42
2023-03-13T00:20:13.460Z,99725.39
2023-03-13T00:23:38.755Z,99719.09
2023-03-13T00:27:04.686Z,99715.35
2023-03-13T00:30:27.790Z,99714.64
2023-03-13T00:33:53.139Z,99717.76
2023-03-13T00:37:16.533Z,99714.33
2023-03-13T00:40:40.480Z,99703.64
2023-03-13T00:44:03.985Z,99697.36
2023-03-13T00:47:27.602Z,99703.77
2023-03-13T00:50:51.444Z,99699.43
2023-03-13T00:54:14.885Z,99698.61
2023-03-13T00:57:38.560Z,99690.77
2023-03-13T01:01:07.759Z,99685.06
2023-03-13T01:04:30.867Z,99682.96
2023-03-13T01:07:53.207Z,99670.30
2023-03-13T01:11:19.031Z,99669.17
2023-03-13T01:14:42.734Z,99674.84
2023-03-13T01:18:06.515Z,99671.80
2023-03-13T01:21:30.561Z,99665.31
2023-03-13T01:24:53.706Z,99668.58
2023-03-13T01:28:16.801Z,99672.17
2023-03-13T01:31:40.358Z,99670.56
2023-03-13T01:35:05.364Z,99666.80
2023-03-13T01:38:29.295Z,99660.53
2023-03-13T01:41:52.954Z,99661.97
2023-03-13T01:45:53.631Z,99657.27
2023-03-13T01:49:21.326Z,99649.24
2023-03-13T01:52:57.910Z,99641.79
2023-03-13T01:56:31.338Z,99637.30
2023-03-13T02:00:00.531Z,99637.23
2023-03-13T02:03:24.234Z,99642.70
2023-03-13T02:06:52.337Z,99638.71
2023-03-13T02:10:18.608Z,99637.92
2023-03-13T02:13:42.610Z,99638.02
2023-03-13T02:17:07.799Z,99627.05
2023-03-13T02:20:31.303Z,99619.24
2023-03-13T02:23:59.363Z,99622.82
2023-03-13T02:27:22.900Z,99621.27
2023-03-13T02:30:46.107Z,99624.48
2023-03-13T02:34:11.496Z,99623.78
2023-03-13T02:37:37.229Z,99618.64
2023-03-13T02:41:04.619Z,99621.55
2023-03-13T02:44:28.789Z,99615.59
2023-03-13T02:47:52.635Z,99615.23
2023-03-13T02:51:20.844Z,99614.34
2023-03-13T02:54:48.008Z,99612.98
2023-03-13T02:58:11.186Z,99609.58
2023-03-13T03:01:34.770Z,99606.86
2023-03-13T03:04:58.341Z,99613.66
2023-03-13T03:08:21.378Z,99611.73
2023-03-13T03:11:44.863Z,99612.39
2023-03-13T03:15:11.546Z,99609.20
2023-03-13T03:18:40.353Z,99606.11
2023-03-13T03:22:03.733Z,99606.89
2023-03-13T03:25:29.449Z,99598.08
2023-03-13T03:28:53.431Z,99594.56
2023-03-13T03:32:17.153Z,99593.30
2023-03-13T03:35:40.772Z,99589.98
2023-03-13T03:39:04.770Z,99591.63
2023-03-13T03:42:29.205Z,99589.31
2023-03-13T03:45:53.051Z,99587.59
2023-03-13T03:49:17.700Z,99571.42
2023-03-13T03:52:45.649Z,99558.16
2023-03-13T03:56:09.555Z,99550.48
2023-03-13T03:59:36.385Z,99544.78
2023-03-13T04:03:02.762Z,99550.39
2023-03-13T04:06:25.114Z,99545.29
2023-03-13T04:09:48.900Z,99543.56
2023-03-13T04:13:20.842Z,99547.38
2023-03-13T04:16:44.601Z,99539.63
2023-03-13T04:20:13.864Z,99534.02
2023-03-13T04:23:37.782Z,99536.83
2023-03-13T04:27:03.149Z,99538.42
2023-03-13T04:30:27.209Z,99535.65
2023-03-13T04:34:14.341Z,99539.30
2023-03-13T04:37:54.686Z,99538.40
2023-03-13T04:41:25.989Z,99539.77
2023-03-13T04:45:13.120Z,99525.29
2023-03-13T04:48:55.037Z,99521.81
2023-03-13T04:52:39.222Z,99518.20
2023-03-13T04:56:42.786Z,99513.05
2023-03-13T05:00:26.291Z,99509.52
2023-03-13T05:04:15.980Z,99511.59
2023-03-13T05:07:38.172Z,99508.02
2023-03-13T05:11:24.862Z,99503.60
2023-03-13T05:14:52.343Z,99497.14
2023-03-13T05:18:35.694Z,99491.79
2023-03-13T05:22:27.823Z,99488.66
2023-03-13T05:26:09.570Z,99483.20
2023-03-13T05:29:53.061Z,99477.52
2023-03-13T05:33:35.412Z,99476.58
2023-03-13T05:37:21.384Z,99474.02
2023-03-13T05:40:55.630Z,99470.83
2023-03-13T05:44:37.708Z,99475.17
2023-03-13T05:48:21.073Z,99470.10
2023-03-13T05:52:16.628Z,99462.83
2023-03-13T05:55:38.817Z,99460.66
2023-03-13T05:59:31.508Z,99463.80
2023-03-13T06:03:14.484Z,99468.60
2023-03-13T06:06:41.409Z,99467.40
2023-03-13T06:10:07.206Z,99465.09
2023-03-13T06:13:33.154Z,99459.80
2023-03-13T06:17:01.113Z,99452.35
2023-03-13T06:20:24.930Z,99444.71
2023-03-13T06:23:48.504Z,99439.16
2023-03-13T06:27:12.705Z,99434.52
2023-03-13T06:30:46.884Z,99431.02
2023-03-13T06:34:13.613Z,99429.30
2023-03-13T06:37:37.484Z,99428.77
2023-03-13T06:41:02.016Z,99426.19
2023-03-13T06:44:26.301Z,99419.42
2023-03-13T06:47:51.766Z,99416.22
2023-03-13T06:51:16.313Z,99413.33
2023-03-13T06:54:39.863Z,99413.84
2023-03-13T06:58:02.020Z,99410.69
2023-03-13T07:01:25.246Z,99403.64
2023-03-13T07:04:49.286Z,99395.38
2023-03-13T07:08:12.870Z,99399.75
2023-03-13T07:11:36.236Z,99392.73
2023-03-13T07:15:00.326Z,99385.33
2023-03-13T07:18:23.959Z,99379.31
2023-03-13T07:21:49.290Z,99377.29
2023-03-13T07:25:12.633Z,99366.98
2023-03-13T07:28:37.803Z,99360.44
2023-03-13T07:32:02.573Z,99354.39
2023-03-13T07:35:26.375Z,99349.98
2023-03-13T07:38:50.120Z,99342.05
2023-03-13T07:42:14.228Z,99333.14
2023-03-13T07:45:39.423Z,99325.39
2023-03-13T07:49:02.810Z,99323.10
2023-03-13T07:52:27.679Z,99324.27
2023-03-13T07:55:59.089Z,99323.77
2023-03-13T07:59:22.728Z,99318.52
2023-03-13T08:02:46.660Z,99316.83
2023-03-13T08:06:12.894Z,99312.75
2023-03-13T08:09:36.370Z,99304.64
2023-03-13T08:12:59.691Z,99297.27
2023-03-13T08:16:26.013Z,99301.18
2023-03-13T08:19:49.547Z,99298.27
2023-03-13T08:23:12.850Z,99289.06
2023-03-13T08:26:41.042Z,99292.80
2023-03-13T08:30:05.561Z,99288.58
2023-03-13T08:33:28.866Z,99277.45
2023-03-13T08:36:52.801Z,99270.85
2023-03-13T08:40:17.059Z,99267.54
2023-03-13T08:43:40.651Z,99265.70
2023-03-13T08:47:07.429Z,99258.69
2023-03-13T08:50:32.147Z,99254.92
2023-03-13T08:53:56.588Z,99250.55
2023-03-13T08:57:20.388Z,99244.89
2023-03-13T09:00:43.406Z,99245.03
2023-03-13T09:04:07.786Z,99237.08
2023-03-13T09:07:31.067Z,99232.98
2023-03-13T09:10:57.110Z,99228.88
2023-03-13T09:14:20.510Z,99222.10
2023-03-13T09:17:43.815Z,99210.21
2023-03-13T09:21:09.643Z,99205.21
2023-03-13T09:24:33.944Z,99199.77
2023-03-13T09:27:57.485Z,99190.57
2023-03-13T09:31:22.824Z,99185.13
2023-03-13T09:34:46.266Z,99182.28
2023-03-13T09:38:09.752Z,99182.96
2023-03-13T09:41:39.063Z,99179.14
2023-03-13T09:45:08.142Z,99174.50
2023-03-13T09:48:34.771Z,99165.16
2023-03-13T09:52:07.551Z,99155.74
2023-03-13T09:55:33.616Z,99142.45
2023-03-13T09:59:02.490Z,99131.88
2023-03-13T10:02:30.899Z,99120.92
2023-03-13T10:05:59.546Z,99123.46
2023-03-13T10:09:28.468Z,99112.55
2023-03-13T10:12:58.101Z,99116.13
2023-03-13T10:16:27.592Z,99114.66
2023-03-13T10:19:57.140Z,99101.87
2023-03-13T10:23:27.554Z,99097.83
2023-03-13T10:26:50.511Z,99093.52
2023-03-13T10:30:23.922Z,99087.11
2023-03-13T10:33:50.369Z,99081.74
2023-03-13T10:37:14.669Z,99071.65
2023-03-13T10:40:39.658Z,99070.22
2023-03-13T10:44:06.162Z,99063.73
2023-03-13T10:47:34.576Z,99052.94
2023-03-13T10:51:01.918Z,99041.54
2023-03-13T10:54:27.175Z,99039.98
2023-03-13T10:57:59.286Z,99035.33
2023-03-13T11:01:24.964Z,99026.71
2023-03-13T11:04:52.980Z,99026.73
2023-03-13T11:08:25.421Z,99021.16
2023-03-13T11:11:51.036Z,99014.10
2023-03-13T11:15:19.145Z,99011.70
2023-03-13T11:19:06.720Z,99010.09
2023-03-13T11:22:41.627Z,99003.08
2023-03-13T11:26:23.428Z,98993.23
2023-03-13T11:29:56.132Z,98988.14
2023-03-13T11:33:29.208Z,98980.83
2023-03-13T11:37:01.758Z,98971.91
2023-03-13T11:40:32.290Z,98971.54
2023-03-13T11:44:19.406Z,98951.68
2023-03-13T11:47:56.868Z,98935.92
2023-03-13T11:51:25.208Z,98922.36
2023-03-13T11:55:38.902Z,98925.25
2023-03-13T11:59:21.666Z,98918.23
2023-03-13T12:02:50.982Z,98906.55
2023-03-13T12:06:28.184Z,98902.95
2023-03-13T12:09:57.544Z,98906.79
2023-03-13T12:13:27.662Z,98893.11
2023-03-13T12:16:56.433Z,98898.63
2023-03-13T12:20:25.615Z,98898.00
2023-03-13T12:23:58.407Z,98891.30
2023-03-13T12:27:32.552Z,98890.16
2023-03-13T12:31:07.850Z,98880.63
2023-03-13T12:34:35.022Z,98881.10
2023-03-13T12:38:10.498Z,98873.41
2023-03-13T12:41:42.836Z,98866.54
2023-03-13T12:45:12.685Z,98863.21
2023-03-13T12:49:00.707Z,98855.86
2023-03-13T12:52:56.237Z,98854.96
2023-03-13T12:56:35.061Z,98846.08
2023-03-13T13:00:05.102Z,98833.15
2023-03-13T13:03:35.845Z,98823.21
2023-03-13T13:07:02.788Z,98834.73
2023-03-13T13:10:29.150Z,98833.56
2023-03-13T13:13:52.175Z,98815.98
2023-03-13T13:17:23.616Z,98801.91
2023-03-13T13:20:49.643Z,98805.63
2023-03-13T13:24:48.770Z,98814.08
2023-03-13T13:28:34.932Z,98800.19
2023-03-13T13:32:01.005Z,98801.81
2023-03-13T13:35:35.080Z,98800.20
2023-03-13T13:38:59.525Z,98794.81
2023-03-13T13:42:48.414Z,98788.44
2023-03-13T13:46:24.045Z,98779.46
2023-03-13T13:50:04.317Z,98772.87
2023-03-13T13:53:34.256Z,98777.02
2023-03-13T13:57:00.492Z,98779.20
2023-03-13T14:00:29.476Z,98781.98
2023-03-13T14:04:01.248Z,98769.67
2023-03-13T14:07:30.526Z,98765.38
2023-03-13T14:11:04.831Z,98760.88
2023-03-13T14:14:28.633Z,98761.41
2023-03-13T14:17:53.981Z,98753.27
2023-03-13T14:21:23.099Z,98752.80
2023-03-13T14:24:57.931Z,98747.91
2023-03-13T14:28:26.529Z,98745.60
2023-03-13T14:31:54.280Z,98742.64
2023-03-13T14:35:22.000Z,98727.67
2023-03-13T14:38:54.659Z,98732.21
2023-03-13T14:42:19.925Z,98745.21
2023-03-13T14:45:43.759Z,98737.14
2023-03-13T14:49:14.289Z,98721.67
2023-03-13T14:52:39.587Z,98730.58
2023-03-13T14:56:18.826Z,98736.94
2023-03-13T14:59:43.310Z,98722.54
2023-03-13T15:03:30.276Z,98727.64
2023-03-13T15:07:03.618Z,98719.54
2023-03-13T15:10:32.443Z,98709.69
2023-03-13T15:13:57.326Z,98722.45
2023-03-13T15:17:25.068Z,98722.27
2023-03-13T15:20:52.415Z,98718.11
2023-03-13T15:24:17.828Z,98713.48
2023-03-13T15:27:42.337Z,98711.40
2023-03-13T15:31:06.917Z,98715.21
2023-03-13T15:34:33.530Z,98718.02
2023-03-13T15:37:58.665Z,98723.84
2023-03-13T15:41:24.593Z,98726.06
2023-03-13T15:44:48.692Z,98726.34
2023-03-13T15:48:17.759Z,98726.86
2023-03-13T15:51:40.719Z,98729.20
2023-03-13T15:55:06.839Z,98731.47
2023-03-13T15:58:31.203Z,98737.17
2023-03-13T16:01:54.737Z,98734.20
2023-03-13T16:05:21.003Z,98733.60
2023-03-13T16:08:45.170Z,98748.45
2023-03-13T16:12:09.705Z,98747.07
2023-03-13T16:15:34.478Z,98742.95
2023-03-13T16:18:58.865Z,98740.70
2023-03-13T16:22:22.628Z,98744.02
2023-03-13T16:25:49.240Z,98744.35
2023-03-13T16:29:15.503Z,98741.26
2023-03-13T16:32:39.648Z,98749.77
2023-03-13T16:36:09.800Z,98746.48
2023-03-13T16:39:33.518Z,98747.36
2023-03-13T16:42:57.782Z,98751.85
2023-03-13T16:46:28.131Z,98742.86
2023-03-13T16:49:52.400Z,98740.52
2023-03-13T16:53:15.914Z,98734.66
2023-03-13T16:56:39.319Z,98738.15
2023-03-13T17:00:07.130Z,98749.51
2023-03-13T17:03:30.499Z,98744.64
2023-03-13T17:06:54.900Z,98740.52
2023-03-13T17:10:21.508Z,98737.26
2023-03-13T17:13:46.207Z,98732.77
2023-03-13T17:17:14.670Z,98730.41
2023-03-13T17:20:38.011Z,98737.50
2023-03-13T17:24:11.794Z,98743.27
2023-03-13T17:27:38.722Z,98738.18
2023-03-13T17:31:02.898Z,98731.05
2023-03-13T17:34:29.875Z,98732.34
2023-03-13T17:37:53.703Z,98730.42
2023-03-13T17:41:19.579Z,98728.96
2023-03-13T17:44:44.094Z,98729.16
2023-03-13T17:48:13.195Z,98731.40
2023-03-13T17:51:36.648Z,98723.29
2023-03-13T17:55:03.148Z,98719.09
2023-03-13T17:58:29.220Z,98722.04
2023-03-13T18:01:53.502Z,98731.42
2023-03-13T18:05:17.716Z,98730.65
2023-03-13T18:08:40.960Z,98727.79
2023-03-13T18:12:06.612Z,98723.45
2023-03-13T18:15:30.062Z,98715.35
2023-03-13T18:18:54.560Z,98708.73
2023-03-13T18:22:21.023Z,98709.73
2023-03-13T18:25:44.012Z,98697.16
2023-03-13T18:29:19.899Z,98691.77
2023-03-13T18:32:44.066Z,98671.55
2023-03-13T18:36:16.880Z,98669.39
2023-03-13T18:39:40.697Z,98664.59
2023-03-13T18:43:05.853Z,98655.80
2023-03-13T18:46:33.221Z,98654.00
2023-03-13T18:49:56.623Z,98647.55
2023-03-13T18:53:20.226Z,98649.98
2023-03-13T18:56:45.024Z,98660.69
2023-03-13T19:00:17.985Z,98672.44
2023-03-13T19:03:41.980Z,98663.27
2023-03-13T19:07:13.153Z,98659.95
2023-03-13T19:10:38.058Z,98660.10
2023-03-13T19:14:01.978Z,98653.00
2023-03-13T19:17:28.484Z,98662.87
2023-03-13T19:20:52.035Z,98673.31
2023-03-13T19:24:15.881Z,98662.17
2023-03-13T19:27:40.327Z,98663.23
2023-03-13T19:31:04.140Z,98662.04
2023-03-13T19:34:28.186Z,98655.20
2023-03-13T19:37:52.291Z,98645.26
2023-03-13T19:41:16.637Z,98650.78
2023-03-13T19:44:40.904Z,98660.60
2023-03-13T19:48:06.075Z,98653.55
2023-03-13T19:51:30.647Z,98648.70
2023-03-13T19:54:55.308Z,98640.67
2023-03-13T19:58:19.442Z,98638.88
2023-03-13T20:01:43.396Z,98643.55
2023-03-13T20:05:10.102Z,98656.27
2023-03-13T20:08:33.669Z,98652.93
2023-03-13T20:11:57.010Z,98647.69
2023-03-13T20:15:20.691Z,98641.91
2023-03-13T20:18:43.381Z,98636.66
2023-03-13T20:22:09.227Z,98633.61
2023-03-13T20:25:32.675Z,98619.77
2023-03-13T20:28:55.314Z,98620.41
2023-03-13T20:32:18.738Z,98620.56
2023-03-13T20:35:42.398Z,98613.47
2023-03-13T20:39:06.479Z,98613.39
2023-03-13T20:42:29.747Z,98607.22
2023-03-13T20:45:53.781Z,98603.17
2023-03-13T20:49:17.393Z,98609.66
2023-03-13T20:52:41.514Z,98591.85
2023-03-13T20:56:08.682Z,98580.52
2023-03-13T20:59:32.462Z,98573.29
2023-03-13T21:03:00.721Z,98569.78
2023-03-13T21:06:27.280Z,98581.06
2023-03-13T21:09:50.788Z,98585.02
2023-03-13T21:13:14.034Z,98579.36
2023-03-13T21:16:36.799Z,98584.45
2023-03-13T21:20:00.082Z,98591.92
2023-03-13T21:23:24.395Z,98580.96
2023-03-13T21:26:48.527Z,98575.59
2023-03-13T21:30:18.643Z,98573.09
2023-03-13T21:33:44.602Z,98565.33
2023-03-13T21:37:08.583Z,98561.25
2023-03-13T21:40:32.906Z,98569.75
2023-03-13T21:43:56.655Z,98568.28
2023-03-13T21:47:24.023Z,98569.39
2023-03-13T21:50:51.211Z,98568.35
2023-03-13T21:54:18.701Z,98559.90
2023-03-13T21:57:45.328Z,98555.61
2023-03-13T22:01:09.177Z,98545.46
2023-03-13T22:04:33.675Z,98536.98
2023-03-13T22:07:58.267Z,98527.79
2023-03-13T22:11:22.717Z,98517.93
2023-03-13T22:14:46.098Z,98513.48
2023-03-13T22:18:09.788Z,98512.00
2023-03-13T22:21:33.041Z,98510.73
2023-03-13T22:24:57.295Z,98495.35
2023-03-13T22:28:21.549Z,98484.98
2023-03-13T22:31:45.567Z,98473.50
2023-03-13T22:35:10.132Z,98464.95
2023-03-13T22:38:38.485Z,98458.67
2023-03-13T22:42:02.088Z,98456.55
2023-03-13T22:45:27.212Z,98456.79
2023-03-13T22:48:50.493Z,98457.01
2023-03-13T22:52:32.486Z,98449.92
2023-03-13T22:56:01.955Z,98443.75
2023-03-13T22:59:25.643Z,98432.65
2023-03-13T23:02:49.646Z,98440.23
2023-03-13T23:06:14.932Z,98447.97
2023-03-13T23:09:39.002Z,98446.77
2023-03-13T23:13:03.031Z,98438.90
2023-03-13T23:16:26.117Z,98432.99
2023-03-13T23:19:50.219Z,98436.01
2023-03-13T23:23:13.616Z,98439.05
2023-03-13T23:26:37.733Z,98439.48
2023-03-13T23:30:03.894Z,98438.95
2023-03-13T23:33:28.635Z,98441.52
2023-03-13T23:36:52.072Z,98435.81
2023-03-13T23:40:15.493Z,98431.73
2023-03-13T23:43:38.922Z,98426.96
2023-03-13T23:47:02.289Z,98423.77
2023-03-13T23:50:26.168Z,98424.57
2023-03-13T23:53:50.739Z,98423.96
2023-03-13T23:57:14.373Z,98422.18
